Aviation Digital Data Service (ADDS)

Output produced by METARs form (0903 UTC 18 October 2018)
found at http://www.aviationweather.gov/metar/data/
 
FTTC 180800Z 10019KT CAVOK 32/// Q1013
FTTY 180800Z 04006KT CAVOK 34/06 Q1014
FTTD 180800Z 28006KT CAVOK 31/25 Q1013
FTTJ 180800Z 03007KT 030V090 6000 NSC 33/07 Q1011 NOSIG
TAF FTTJ 180500Z 1806/1912 VRB04KT CAVOK 
     TEMPO 1816/1819 4000 HZ 
     BECMG 1905/1909 06010KT
       
FTTA 180800Z 26006KT CAVOK 30/22 Q1014